Time;durP1;ratioP1;P1;durP2;ratioP2;P2;SDS_P1;SDS_P2;PMS_P1;PMS_P2;Temp;Humidity;BMP_temperature;BMP_pressure;BME280_temperature;BME280_humidity;BME280_pressure;Samples;Min_cycle;Max_cycle;Signal;HPM_P1;HPM_P2
2023/04/29 00:02:18;;;;;;;26.13;18.30;;;8.70;99.90;;;;;;5036530;28;20537;-48
2023/04/29 00:04:44;;;;;;;28.53;17.93;;;8.70;99.90;;;;;;5035983;28;20183;-49
2023/04/29 00:07:14;;;;;;;35.73;18.83;;;8.70;99.90;;;;;;5035855;28;20544;-49
2023/04/29 00:09:39;;;;;;;29.93;19.17;;;8.70;99.90;;;;;;5035977;28;20187;-49
2023/04/29 00:12:05;;;;;;;28.27;19.17;;;8.70;99.90;;;;;;5036243;28;20415;-49
2023/04/29 00:14:31;;;;;;;31.13;19.03;;;8.70;99.90;;;;;;5036312;28;20582;-49
2023/04/29 00:16:57;;;;;;;29.77;18.53;;;8.70;99.90;;;;;;5035685;28;20194;-49
2023/04/29 00:19:22;;;;;;;27.57;18.37;;;8.70;99.90;;;;;;5035925;28;20253;-48
2023/04/29 00:21:48;;;;;;;32.20;18.63;;;8.70;99.90;;;;;;5035129;28;20414;-49
2023/04/29 00:24:14;;;;;;;27.30;18.87;;;8.70;99.90;;;;;;5035744;28;20180;-49
2023/04/29 00:26:40;;;;;;;27.80;18.37;;;8.70;99.90;;;;;;5035725;28;20214;-49
2023/04/29 00:29:05;;;;;;;31.43;18.63;;;8.60;99.90;;;;;;5035512;28;20199;-49
2023/04/29 00:31:31;;;;;;;26.60;17.97;;;8.60;99.90;;;;;;5035288;28;20414;-49
2023/04/29 00:33:57;;;;;;;33.43;17.70;;;8.60;99.90;;;;;;5035278;28;20186;-49
2023/04/29 00:36:22;;;;;;;30.13;18.40;;;8.60;99.90;;;;;;5035460;28;20171;-49
2023/04/29 00:38:48;;;;;;;29.83;18.50;;;8.60;99.90;;;;;;5035483;28;20233;-50
2023/04/29 00:41:13;;;;;;;27.20;18.20;;;8.50;99.90;;;;;;5035397;28;20215;-48
2023/04/29 00:43:39;;;;;;;28.17;18.30;;;8.60;99.90;;;;;;5035678;28;20182;-49
2023/04/29 00:46:05;;;;;;;27.37;18.17;;;8.50;99.90;;;;;;5035482;28;20591;-49
2023/04/29 00:48:31;;;;;;;26.67;17.73;;;8.50;99.90;;;;;;5035145;28;20227;-49
2023/04/29 00:50:57;;;;;;;32.87;17.80;;;8.60;99.90;;;;;;5034957;28;20218;-49
2023/04/29 00:53:23;;;;;;;29.20;18.70;;;8.50;99.90;;;;;;5034640;28;20418;-49
2023/04/29 00:55:50;;;;;;;29.50;19.30;;;8.50;99.90;;;;;;5034955;28;20870;-49
2023/04/29 00:58:18;;;;;;;26.90;18.70;;;8.50;99.90;;;;;;5034910;28;20183;-49
2023/04/29 01:00:45;;;;;;;30.63;19.00;;;8.50;99.90;;;;;;5034990;28;20425;-49
2023/04/29 01:03:12;;;;;;;28.37;17.70;;;8.50;99.90;;;;;;5035042;28;20957;-49
2023/04/29 01:05:37;;;;;;;27.00;17.53;;;8.40;99.90;;;;;;5034919;28;20424;-49
2023/04/29 01:08:13;;;;;;;24.60;16.40;;;8.40;99.90;;;;;;5034956;28;20462;-49
2023/04/29 01:10:50;;;;;;;31.63;18.23;;;8.50;99.90;;;;;;5035038;28;20167;-49
2023/04/29 01:13:50;;;;;;;31.60;18.17;;;8.50;99.90;;;;;;5034899;28;20481;-49
2023/04/29 01:16:28;;;;;;;29.93;18.13;;;8.40;99.90;;;;;;5034465;28;20410;-49
2023/04/29 01:18:57;;;;;;;32.63;19.93;;;8.30;99.90;;;;;;5034445;28;20874;-49
2023/04/29 01:21:24;;;;;;;28.53;17.53;;;8.30;99.90;;;;;;5034811;28;20421;-49
2023/04/29 01:23:55;;;;;;;29.70;18.63;;;8.20;99.90;;;;;;5034327;28;20537;-49
2023/04/29 01:26:22;;;;;;;30.70;19.50;;;8.20;99.90;;;;;;5034723;28;20871;-49
2023/04/29 01:29:03;;;;;;;31.07;18.50;;;8.20;99.90;;;;;;5034482;28;20418;-49
2023/04/29 01:31:29;;;;;;;28.00;18.97;;;8.20;99.90;;;;;;5034696;28;20398;-49
2023/04/29 01:34:22;;;;;;;29.67;19.07;;;8.20;99.90;;;;;;5034125;28;20779;-49
2023/04/29 01:37:09;;;;;;;31.63;19.00;;;8.10;99.90;;;;;;5034371;28;20192;-49
2023/04/29 01:40:04;;;;;;;30.30;19.63;;;8.10;99.90;;;;;;5034414;28;20417;-50
2023/04/29 01:42:42;;;;;;;33.10;19.33;;;8.20;99.90;;;;;;5034435;28;20412;-49
2023/04/29 01:45:10;;;;;;;33.27;20.87;;;8.20;99.90;;;;;;5034444;28;20480;-49
2023/04/29 01:47:36;;;;;;;30.10;19.10;;;8.20;99.90;;;;;;5033325;28;20580;-49
2023/04/29 01:50:03;;;;;;;37.73;20.60;;;8.20;99.90;;;;;;5033938;28;20401;-50
2023/04/29 01:52:28;;;;;;;31.57;20.03;;;8.20;99.90;;;;;;5034172;28;20420;-49
2023/04/29 01:54:54;;;;;;;28.50;18.97;;;8.10;99.90;;;;;;5034102;28;20414;-49
2023/04/29 01:57:20;;;;;;;31.40;20.47;;;8.10;99.90;;;;;;5034094;28;20198;-48
2023/04/29 01:59:45;;;;;;;34.97;20.40;;;8.20;99.90;;;;;;5033987;28;20183;-49
2023/04/29 02:02:11;;;;;;;31.47;20.27;;;8.20;99.90;;;;;;5034124;28;20195;-48
2023/04/29 02:04:36;;;;;;;39.20;20.83;;;8.20;99.90;;;;;;5033836;28;20245;-49
2023/04/29 02:07:02;;;;;;;28.97;19.93;;;8.20;99.90;;;;;;5033934;28;20219;-48
2023/04/29 02:09:28;;;;;;;33.23;21.57;;;8.10;99.90;;;;;;5034171;28;20191;-49
2023/04/29 02:11:54;;;;;;;35.80;21.57;;;8.10;99.90;;;;;;5033808;28;20727;-49
2023/04/29 02:14:19;;;;;;;32.40;19.80;;;8.20;99.90;;;;;;5034006;28;20517;-48
2023/04/29 02:16:45;;;;;;;36.10;20.70;;;8.10;99.90;;;;;;5033779;28;20189;-49
2023/04/29 02:19:11;;;;;;;32.90;22.10;;;8.20;99.90;;;;;;5033815;28;20183;-48
2023/04/29 02:21:38;;;;;;;43.40;23.23;;;8.10;99.90;;;;;;5034068;28;20318;-49
2023/04/29 02:24:04;;;;;;;38.60;22.30;;;8.20;99.90;;;;;;5033766;28;20217;-48
2023/04/29 02:26:30;;;;;;;42.43;22.80;;;8.10;99.90;;;;;;5034063;28;20475;-48
2023/04/29 02:28:56;;;;;;;40.87;23.97;;;8.10;99.90;;;;;;5033915;28;20811;-48
2023/04/29 02:31:22;;;;;;;36.87;23.80;;;8.10;99.90;;;;;;5033629;28;20749;-48
2023/04/29 02:33:48;;;;;;;45.20;24.60;;;8.10;99.90;;;;;;5033504;28;20421;-49
2023/04/29 02:36:13;;;;;;;51.00;26.27;;;8.10;99.90;;;;;;5033844;28;20238;-48
2023/04/29 02:38:39;;;;;;;44.00;25.70;;;8.10;99.90;;;;;;5033361;28;20686;-48
2023/04/29 02:41:05;;;;;;;42.30;25.50;;;8.00;99.90;;;;;;5033093;28;20176;-49
2023/04/29 02:43:30;;;;;;;43.57;24.27;;;8.00;99.90;;;;;;5033100;28;20175;-49
2023/04/29 02:45:56;;;;;;;41.80;24.87;;;8.00;99.90;;;;;;5035431;28;20179;-48
2023/04/29 02:48:22;;;;;;;40.17;23.80;;;8.00;99.90;;;;;;5037164;28;20296;-48
2023/04/29 02:50:48;;;;;;;37.17;23.20;;;8.00;99.90;;;;;;5037344;28;20417;-49
2023/04/29 02:53:13;;;;;;;35.53;22.27;;;8.00;99.90;;;;;;5037507;28;20188;-48
2023/04/29 02:55:39;;;;;;;37.03;22.10;;;8.00;99.90;;;;;;5037287;28;20225;-48
2023/04/29 02:58:04;;;;;;;32.93;22.07;;;8.00;99.90;;;;;;5037158;28;20179;-49
2023/04/29 03:00:30;;;;;;;33.10;22.67;;;8.00;99.90;;;;;;5037077;28;20215;-48
2023/04/29 03:02:56;;;;;;;36.27;23.63;;;8.00;99.90;;;;;;5037349;28;20183;-48
2023/04/29 03:05:25;;;;;;;37.33;23.00;;;7.90;99.90;;;;;;5037307;28;20183;-48
2023/04/29 03:07:51;;;;;;;34.13;21.40;;;7.90;99.90;;;;;;5037215;28;20208;-48
2023/04/29 03:10:17;;;;;;;35.70;22.93;;;7.90;99.90;;;;;;5037098;28;20505;-48
2023/04/29 03:12:43;;;;;;;36.63;22.57;;;7.90;99.90;;;;;;5037308;28;20222;-48
2023/04/29 03:15:09;;;;;;;37.10;21.47;;;7.90;99.90;;;;;;5036742;28;20818;-48
2023/04/29 03:17:35;;;;;;;33.67;21.50;;;8.00;99.90;;;;;;5036762;28;20188;-48
2023/04/29 03:20:01;;;;;;;40.33;23.20;;;7.90;99.90;;;;;;5037461;28;20431;-49
2023/04/29 03:22:26;;;;;;;34.03;21.10;;;7.90;99.90;;;;;;5036795;28;20240;-48
2023/04/29 03:24:52;;;;;;;35.63;21.90;;;7.90;99.90;;;;;;5036931;28;20176;-48
2023/04/29 03:27:18;;;;;;;35.43;21.57;;;7.80;99.90;;;;;;5036997;28;20207;-48
2023/04/29 03:29:44;;;;;;;34.77;22.27;;;7.90;99.90;;;;;;5036904;28;20186;-48
2023/04/29 03:32:10;;;;;;;34.90;22.33;;;7.90;99.90;;;;;;5036796;28;20476;-48
2023/04/29 03:34:35;;;;;;;36.80;22.53;;;7.90;99.90;;;;;;5036232;28;20212;-48
2023/04/29 03:37:01;;;;;;;41.10;22.80;;;7.80;99.90;;;;;;5036455;28;20199;-48
2023/04/29 03:39:31;;;;;;;39.30;23.90;;;7.80;99.90;;;;;;5036605;28;20191;-48
2023/04/29 03:41:57;;;;;;;36.93;23.43;;;7.80;99.90;;;;;;5036582;28;20187;-48
2023/04/29 03:44:22;;;;;;;37.13;22.30;;;7.80;99.90;;;;;;5036661;28;20422;-49
2023/04/29 03:46:48;;;;;;;33.43;21.23;;;7.80;99.90;;;;;;5036490;28;20465;-48
2023/04/29 03:49:14;;;;;;;44.57;24.87;;;7.70;99.90;;;;;;5036356;28;20242;-48
2023/04/29 03:51:40;;;;;;;39.33;23.17;;;7.70;99.90;;;;;;5036403;28;20187;-47
2023/04/29 03:54:07;;;;;;;36.93;23.70;;;7.60;99.90;;;;;;5036605;28;20418;-49
2023/04/29 03:56:32;;;;;;;37.87;22.90;;;7.60;99.90;;;;;;5036143;28;20227;-48
2023/04/29 03:58:58;;;;;;;38.07;23.27;;;7.60;99.90;;;;;;5036271;28;20456;-48
2023/04/29 04:01:23;;;;;;;37.03;22.77;;;7.60;99.90;;;;;;5036466;28;20221;-48
2023/04/29 04:03:49;;;;;;;41.10;23.30;;;7.60;99.90;;;;;;5036072;28;20233;-48
2023/04/29 04:06:15;;;;;;;38.77;23.47;;;7.60;99.90;;;;;;5036234;28;20178;-48
2023/04/29 04:08:40;;;;;;;32.37;21.10;;;7.60;99.90;;;;;;5035902;28;20190;-48
2023/04/29 04:11:07;;;;;;;35.23;22.07;;;7.60;99.90;;;;;;5035849;28;20183;-48
2023/04/29 04:13:32;;;;;;;38.40;22.00;;;7.60;99.90;;;;;;5036376;28;20203;-48
2023/04/29 04:15:58;;;;;;;32.23;21.27;;;7.60;99.90;;;;;;5035660;28;20938;-48
2023/04/29 04:18:24;;;;;;;32.10;19.90;;;7.70;99.90;;;;;;5036221;28;20206;-47
2023/04/29 04:20:49;;;;;;;36.27;21.40;;;7.60;99.90;;;;;;5035768;28;20230;-48
2023/04/29 04:23:15;;;;;;;34.60;22.30;;;7.60;99.90;;;;;;5036026;28;20187;-47
2023/04/29 04:25:47;;;;;;;34.63;20.50;;;7.60;99.90;;;;;;5035872;28;20515;-48
2023/04/29 04:28:13;;;;;;;36.53;23.07;;;7.50;99.90;;;;;;5035589;28;20207;-48
2023/04/29 04:30:39;;;;;;;36.10;22.00;;;7.50;99.90;;;;;;5035840;28;20820;-47
2023/04/29 04:33:05;;;;;;;38.80;21.80;;;7.60;99.90;;;;;;5035357;28;20418;-47
2023/04/29 04:35:31;;;;;;;41.83;22.50;;;7.60;99.90;;;;;;5035266;28;20458;-47
2023/04/29 04:37:57;;;;;;;36.83;21.13;;;7.70;99.90;;;;;;5035466;28;20190;-46
2023/04/29 04:40:23;;;;;;;43.93;24.00;;;7.80;99.90;;;;;;5035441;28;20237;-48
2023/04/29 04:42:48;;;;;;;37.60;21.73;;;7.80;99.90;;;;;;5035151;28;20422;-47
2023/04/29 04:45:14;;;;;;;34.07;22.33;;;7.80;99.90;;;;;;5035614;28;20179;-48
2023/04/29 04:47:40;;;;;;;36.77;22.70;;;7.90;99.90;;;;;;5035006;28;20330;-47
2023/04/29 04:50:07;;;;;;;32.90;21.63;;;8.00;99.90;;;;;;5034946;28;20620;-48
2023/04/29 04:52:33;;;;;;;33.47;21.60;;;8.10;99.90;;;;;;5035235;28;20423;-47
2023/04/29 04:54:59;;;;;;;32.57;20.70;;;8.10;99.90;;;;;;5034803;28;20417;-48
2023/04/29 04:57:25;;;;;;;35.53;22.00;;;8.10;99.90;;;;;;5035086;28;20187;-48
2023/04/29 04:59:50;;;;;;;35.20;21.13;;;8.10;99.90;;;;;;5035290;28;20288;-48
2023/04/29 05:02:16;;;;;;;34.83;21.17;;;8.10;99.90;;;;;;5035141;28;20966;-48
2023/04/29 05:04:41;;;;;;;32.17;20.80;;;8.10;99.90;;;;;;5034775;28;20175;-47
2023/04/29 05:07:07;;;;;;;32.17;20.07;;;8.10;99.90;;;;;;5034985;28;20239;-48
2023/04/29 05:09:33;;;;;;;35.37;20.83;;;8.10;99.90;;;;;;5034585;28;20590;-48
2023/04/29 05:11:58;;;;;;;31.30;20.60;;;8.10;99.90;;;;;;5034289;28;20417;-49
2023/04/29 05:14:25;;;;;;;28.87;18.63;;;8.20;99.90;;;;;;5034701;28;20186;-48
2023/04/29 05:16:51;;;;;;;35.13;19.80;;;8.30;99.90;;;;;;5035008;28;20180;-48
2023/04/29 05:19:17;;;;;;;33.80;19.57;;;8.30;99.90;;;;;;5034889;28;20776;-48
2023/04/29 05:21:43;;;;;;;32.53;20.30;;;8.40;99.90;;;;;;5034654;28;20415;-48
2023/04/29 05:24:09;;;;;;;30.60;19.37;;;8.50;99.90;;;;;;5034571;28;20436;-49
2023/04/29 05:26:34;;;;;;;30.47;19.10;;;8.60;99.90;;;;;;5034216;28;20265;-48
2023/04/29 05:29:00;;;;;;;35.03;19.33;;;8.70;99.90;;;;;;5034476;28;20191;-48
2023/04/29 05:31:27;;;;;;;32.40;18.20;;;8.80;99.90;;;;;;5034025;28;20178;-49
2023/04/29 05:33:52;;;;;;;29.50;17.97;;;8.90;99.90;;;;;;5034439;28;20179;-48
2023/04/29 05:36:18;;;;;;;29.77;18.50;;;9.00;99.90;;;;;;5034025;28;20503;-49
2023/04/29 05:38:44;;;;;;;28.20;17.17;;;9.00;99.90;;;;;;5034447;28;20181;-49
2023/04/29 05:41:10;;;;;;;25.93;15.90;;;9.10;99.90;;;;;;5034676;28;20238;-49
2023/04/29 05:43:35;;;;;;;27.40;17.70;;;9.30;99.90;;;;;;5034338;28;20414;-49
2023/04/29 05:46:01;;;;;;;23.07;15.50;;;9.30;99.90;;;;;;5034157;28;20234;-48
2023/04/29 05:48:28;;;;;;;21.10;14.67;;;9.30;99.90;;;;;;5032791;28;20253;-49
2023/04/29 05:50:54;;;;;;;25.10;14.90;;;9.40;77.60;;;;;;5034335;28;20194;-49
2023/04/29 05:53:20;;;;;;;23.20;15.13;;;9.50;8.90;;;;;;5034124;28;20728;-49
2023/04/29 05:55:45;;;;;;;23.67;14.50;;;9.60;16.60;;;;;;5034243;28;20488;-49
2023/04/29 05:58:13;;;;;;;21.57;13.87;;;9.70;1.00;;;;;;5034435;28;20184;-49
2023/04/29 06:00:39;;;;;;;24.83;14.07;;;9.80;1.00;;;;;;5034151;28;20174;-49
2023/04/29 06:03:05;;;;;;;25.10;14.27;;;9.70;1.00;;;;;;5033900;28;20887;-51
2023/04/29 06:05:31;;;;;;;18.07;12.97;;;9.70;1.00;;;;;;5033575;28;20186;-49
2023/04/29 06:07:56;;;;;;;19.60;12.77;;;9.70;99.90;;;;;;5034086;28;20301;-49
2023/04/29 06:10:22;;;;;;;28.30;13.33;;;9.80;1.00;;;;;;5034263;28;20196;-50
2023/04/29 06:12:50;;;;;;;19.50;13.17;;;9.90;1.00;;;;;;5033574;28;20301;-50
2023/04/29 06:15:16;;;;;;;22.40;14.07;;;9.90;1.00;;;;;;5034034;28;20190;-55
2023/04/29 06:17:41;;;;;;;17.87;13.00;;;10.10;99.90;;;;;;5033736;28;20415;-50
2023/04/29 06:20:08;;;;;;;22.70;13.07;;;10.10;99.90;;;;;;5032735;28;20233;-50
2023/04/29 06:22:34;;;;;;;24.60;13.57;;;10.20;1.00;;;;;;5033812;28;20187;-50
2023/04/29 06:24:59;;;;;;;23.97;13.10;;;10.30;1.00;;;;;;5033825;28;20949;-50
2023/04/29 06:27:25;;;;;;;22.03;13.40;;;10.50;1.00;;;;;;5033734;28;20211;-50
2023/04/29 06:29:50;;;;;;;25.50;12.53;;;10.50;99.90;;;;;;5033350;28;20218;-49
2023/04/29 06:32:16;;;;;;;19.37;12.50;;;10.50;1.00;;;;;;5033667;28;20175;-49
2023/04/29 06:34:41;;;;;;;25.90;13.50;;;10.60;99.90;;;;;;5033612;28;20178;-50
2023/04/29 06:37:07;;;;;;;18.27;13.40;;;10.70;1.00;;;;;;5033719;28;20179;-50
2023/04/29 06:39:32;;;;;;;19.90;12.27;;;11.00;99.90;;;;;;5033556;28;20188;-50
2023/04/29 06:41:58;;;;;;;17.57;12.20;;;11.10;4.10;;;;;;5033377;28;20186;-50
2023/04/29 06:44:24;;;;;;;20.67;12.53;;;11.10;99.90;;;;;;5033569;28;20187;-50
2023/04/29 06:46:50;;;;;;;23.80;12.17;;;11.40;99.90;;;;;;5033583;28;20215;-50
2023/04/29 06:49:15;;;;;;;19.80;11.30;;;11.40;1.00;;;;;;5033777;28;20552;-50
2023/04/29 06:51:41;;;;;;;20.87;11.57;;;11.70;99.90;;;;;;5033467;28;20543;-50
2023/04/29 06:54:07;;;;;;;15.90;11.33;;;12.00;1.00;;;;;;5033317;28;20207;-51
2023/04/29 06:56:33;;;;;;;16.80;11.13;;;12.10;1.00;;;;;;5033745;28;20451;-50
2023/04/29 06:58:58;;;;;;;16.90;11.33;;;12.20;99.90;;;;;;5033312;28;20180;-51
2023/04/29 07:01:24;;;;;;;16.83;11.10;;;12.30;66.60;;;;;;5033616;28;20589;-50
2023/04/29 07:03:50;;;;;;;16.80;11.33;;;12.30;14.80;;;;;;5033625;28;20180;-48
2023/04/29 07:06:15;;;;;;;16.37;10.57;;;12.40;1.00;;;;;;5033214;28;20519;-48
2023/04/29 07:08:41;;;;;;;17.83;10.20;;;12.80;4.70;;;;;;5033520;28;20188;-48
2023/04/29 07:11:06;;;;;;;17.60;10.63;;;13.00;1.00;;;;;;5033478;28;20183;-51
2023/04/29 07:13:32;;;;;;;15.20;9.53;;;13.20;1.00;;;;;;5033099;28;20199;-48
2023/04/29 07:15:58;;;;;;;17.43;10.93;;;13.30;1.00;;;;;;5032739;28;20179;-48
2023/04/29 07:18:23;;;;;;;16.10;9.73;;;13.20;1.00;;;;;;5033029;28;20200;-48
2023/04/29 07:20:51;;;;;;;15.93;10.40;;;13.30;1.00;;;;;;5033293;28;20182;-49
2023/04/29 07:23:17;;;;;;;16.93;10.63;;;13.50;1.00;;;;;;5033590;28;20197;-48
2023/04/29 07:25:42;;;;;;;15.00;9.30;;;13.80;1.00;;;;;;5033008;28;20924;-48
2023/04/29 07:28:08;;;;;;;14.60;7.97;;;14.10;1.00;;;;;;5032878;28;20222;-49
2023/04/29 07:30:34;;;;;;;14.17;9.17;;;14.20;1.00;;;;;;5033145;28;20760;-48
2023/04/29 07:33:00;;;;;;;14.50;10.23;;;14.30;1.00;;;;;;5036891;28;20210;-48
2023/04/29 07:35:26;;;;;;;12.53;8.80;;;14.40;1.00;;;;;;5036591;28;20179;-49
2023/04/29 07:37:51;;;;;;;15.30;9.07;;;14.50;1.00;;;;;;5036358;28;20925;-50
2023/04/29 07:40:17;;;;;;;17.87;10.47;;;14.80;1.00;;;;;;5036595;28;20414;-49
2023/04/29 07:42:43;;;;;;;15.37;9.77;;;14.90;1.00;;;;;;5036066;28;20180;-49
2023/04/29 07:45:09;;;;;;;11.87;8.83;;;15.10;1.00;;;;;;5036585;28;20275;-50
2023/04/29 07:47:35;;;;;;;12.93;8.33;;;15.30;1.00;;;;;;5036129;28;20641;-50
2023/04/29 07:50:00;;;;;;;15.73;8.57;;;15.20;1.00;;;;;;5036495;28;20413;-49
2023/04/29 07:52:27;;;;;;;10.30;8.03;;;15.40;1.00;;;;;;5036111;28;20417;-49
2023/04/29 07:54:55;;;;;;;13.97;8.30;;;15.60;1.00;;;;;;5035869;28;20187;-50
2023/04/29 07:57:20;;;;;;;15.80;8.40;;;15.60;1.00;;;;;;5036556;28;20760;-50
2023/04/29 07:59:46;;;;;;;16.23;9.03;;;15.50;1.00;;;;;;5035987;28;20418;-50
2023/04/29 08:02:12;;;;;;;11.40;7.90;;;15.50;1.00;;;;;;5036202;28;20180;-50
2023/04/29 08:04:41;;;;;;;14.73;8.37;;;15.70;1.00;;;;;;5036088;28;20190;-50
2023/04/29 08:07:06;;;;;;;12.43;8.10;;;16.20;1.00;;;;;;5035780;28;20555;-50
2023/04/29 08:09:32;;;;;;;14.23;8.30;;;16.20;1.00;;;;;;5036103;28;20989;-50
2023/04/29 08:11:57;;;;;;;12.13;8.10;;;16.00;1.00;;;;;;5036285;28;20577;-51
2023/04/29 08:14:23;;;;;;;11.23;8.07;;;16.10;1.00;;;;;;5036142;28;20197;-51
2023/04/29 08:16:48;;;;;;;11.80;7.80;;;16.00;1.00;;;;;;5035775;28;20216;-52
2023/04/29 08:19:14;;;;;;;16.40;7.73;;;16.00;1.00;;;;;;5036177;28;20286;-50
2023/04/29 08:21:40;;;;;;;11.20;8.00;;;16.10;1.00;;;;;;5036000;28;20184;-50
2023/04/29 08:24:06;;;;;;;15.20;7.97;;;16.10;1.00;;;;;;5035905;28;20172;-51
2023/04/29 08:26:31;;;;;;;12.50;7.90;;;16.10;1.00;;;;;;5035939;28;20761;-50
2023/04/29 08:28:57;;;;;;;14.20;7.40;;;16.00;1.00;;;;;;5035934;28;20636;-51
2023/04/29 08:31:22;;;;;;;12.40;8.73;;;16.20;1.00;;;;;;5035682;28;20183;-50
2023/04/29 08:33:48;;;;;;;10.97;8.13;;;16.20;1.00;;;;;;5035909;28;20237;-50
2023/04/29 08:36:14;;;;;;;13.83;9.00;;;16.50;1.00;;;;;;5035841;28;20643;-51
2023/04/29 08:38:40;;;;;;;12.17;8.13;;;16.50;1.00;;;;;;5035814;28;20180;-51
2023/04/29 08:41:08;;;;;;;12.53;9.00;;;16.90;1.00;;;;;;5035589;28;20646;-50
2023/04/29 08:43:39;;;;;;;11.53;8.97;;;17.00;1.00;;;;;;5034274;28;20198;-50
2023/04/29 08:46:05;;;;;;;11.27;7.80;;;17.00;1.00;;;;;;5035422;28;20406;-52
2023/04/29 08:48:32;;;;;;;15.80;8.87;;;16.90;1.00;;;;;;5035236;28;20576;-50
2023/04/29 08:50:58;;;;;;;11.10;8.50;;;17.00;1.00;;;;;;5035549;28;20547;-51
2023/04/29 08:53:24;;;;;;;10.73;8.40;;;17.40;1.00;;;;;;5035201;28;20460;-51
2023/04/29 08:55:50;;;;;;;14.57;8.10;;;17.70;1.00;;;;;;5035305;28;20444;-51
2023/04/29 08:58:16;;;;;;;17.07;8.10;;;17.70;1.00;;;;;;5034956;28;20474;-51
2023/04/29 09:00:42;;;;;;;12.73;7.53;;;17.60;1.00;;;;;;5035121;28;20182;-51
2023/04/29 09:03:23;;;;;;;10.63;7.70;;;17.60;1.00;;;;;;5035024;28;20189;-51
2023/04/29 09:05:52;;;;;;;12.20;8.00;;;17.70;1.00;;;;;;5035041;28;20425;-51
2023/04/29 09:08:21;;;;;;;12.07;7.70;;;17.70;1.00;;;;;;5035013;28;20959;-51
2023/04/29 09:10:47;;;;;;;8.50;7.47;;;17.80;1.00;;;;;;5034793;28;20426;-51
2023/04/29 09:13:27;;;;;;;14.60;8.00;;;17.70;1.00;;;;;;5034801;28;20412;-51
2023/04/29 09:15:53;;;;;;;13.10;8.87;;;17.70;1.00;;;;;;5034923;28;20421;-51
2023/04/29 09:18:47;;;;;;;13.50;8.30;;;17.80;1.00;;;;;;5034539;28;20909;-51
2023/04/29 09:21:21;;;;;;;11.93;7.90;;;17.60;1.00;;;;;;5035010;28;20416;-51
2023/04/29 09:23:51;;;;;;;14.67;8.90;;;17.80;1.00;;;;;;5034619;28;20947;-51
2023/04/29 09:26:17;;;;;;;12.77;8.87;;;18.00;1.00;;;;;;5034464;28;20417;-51
2023/04/29 09:28:44;;;;;;;10.60;7.97;;;18.00;1.00;;;;;;5034571;28;20475;-51
2023/04/29 09:31:10;;;;;;;9.60;7.30;;;17.90;1.00;;;;;;5032772;28;20416;-52
2023/04/29 09:33:57;;;;;;;18.00;8.70;;;17.90;1.00;;;;;;5034499;28;20441;-51
2023/04/29 09:36:39;;;;;;;10.30;6.93;;;17.70;1.00;;;;;;5034401;28;20423;-51
2023/04/29 09:39:10;;;;;;;10.13;7.27;;;17.80;1.00;;;;;;5034066;28;20404;-52
2023/04/29 09:41:38;;;;;;;10.30;7.40;;;17.90;1.00;;;;;;5034142;28;20420;-51
2023/04/29 09:44:05;;;;;;;9.80;7.30;;;17.70;1.00;;;;;;5034284;28;20421;-51
2023/04/29 09:46:35;;;;;;;10.83;6.80;;;17.50;1.00;;;;;;5034015;28;20429;-52
2023/04/29 09:49:03;;;;;;;8.43;6.50;;;17.50;1.00;;;;;;5034074;28;20483;-52
2023/04/29 09:51:31;;;;;;;9.70;6.10;;;17.60;1.00;;;;;;5033939;28;20507;-52
2023/04/29 09:53:58;;;;;;;18.50;6.83;;;17.70;1.00;;;;;;5033945;28;20409;-52
2023/04/29 09:56:27;;;;;;;12.87;7.70;;;17.90;1.00;;;;;;5034073;28;20786;-52
2023/04/29 09:58:54;;;;;;;12.03;7.13;;;18.00;1.00;;;;;;5034130;28;20448;-52
2023/04/29 10:01:21;;;;;;;11.70;7.77;;;18.30;1.00;;;;;;5034155;28;20471;-52
2023/04/29 10:03:47;;;;;;;7.80;6.70;;;18.30;1.00;;;;;;5033973;28;20420;-52
2023/04/29 10:06:15;;;;;;;10.07;6.47;;;18.40;1.00;;;;;;5034009;28;20444;-51
2023/04/29 10:08:41;;;;;;;8.63;6.20;;;18.40;1.00;;;;;;5034104;28;20437;-52
2023/04/29 10:11:09;;;;;;;11.70;7.20;;;18.50;1.00;;;;;;5033657;28;20979;-51
2023/04/29 10:13:37;;;;;;;9.10;6.37;;;18.40;1.00;;;;;;5033887;28;20648;-51
2023/04/29 10:16:14;;;;;;;12.43;6.90;;;18.40;1.00;;;;;;5033706;28;20891;-52
2023/04/29 10:18:43;;;;;;;10.37;7.07;;;18.50;1.00;;;;;;5033886;28;20416;-52
2023/04/29 10:21:10;;;;;;;11.07;7.00;;;19.00;1.00;;;;;;5033501;28;20428;-52
2023/04/29 10:23:36;;;;;;;11.33;7.20;;;19.20;1.00;;;;;;5033884;28;20421;-51
2023/04/29 10:26:02;;;;;;;10.13;7.63;;;19.40;1.00;;;;;;5033590;28;20421;-53
2023/04/29 10:28:32;;;;;;;12.00;7.60;;;19.40;1.00;;;;;;5033852;28;20464;-53
2023/04/29 10:31:03;;;;;;;9.30;7.57;;;19.70;1.00;;;;;;5033354;28;20427;-53
2023/04/29 10:33:34;;;;;;;9.30;6.70;;;19.80;1.00;;;;;;5033769;28;20757;-52
2023/04/29 10:36:01;;;;;;;11.40;7.33;;;19.70;1.00;;;;;;5033656;28;20459;-52
2023/04/29 10:38:40;;;;;;;10.67;7.10;;;20.00;1.00;;;;;;5033757;28;20420;-52
2023/04/29 10:41:18;;;;;;;12.67;8.00;;;19.90;1.00;;;;;;5033828;28;20448;-53
2023/04/29 10:43:43;;;;;;;8.20;7.07;;;20.20;1.00;;;;;;5033780;28;20499;-53
2023/04/29 10:46:27;;;;;;;8.83;7.43;;;20.40;1.00;;;;;;5033893;28;20452;-52
2023/04/29 10:49:01;;;;;;;15.80;7.13;;;20.00;1.00;;;;;;5033194;28;20674;-51
2023/04/29 10:51:32;;;;;;;10.77;7.57;;;20.10;1.00;;;;;;5033253;28;20413;-53
2023/04/29 10:54:11;;;;;;;10.33;7.00;;;20.50;1.00;;;;;;5033439;28;20743;-52
2023/04/29 10:56:53;;;;;;;10.40;7.50;;;21.00;1.00;;;;;;5033299;28;20811;-53
2023/04/29 10:59:24;;;;;;;11.73;7.97;;;21.50;1.00;;;;;;5033342;28;20490;-53
2023/04/29 11:01:51;;;;;;;10.37;6.90;;;21.20;1.00;;;;;;5033498;28;20402;-52
2023/04/29 11:04:19;;;;;;;9.20;7.50;;;21.30;1.00;;;;;;5033697;28;20417;-53
2023/04/29 11:06:47;;;;;;;13.57;8.33;;;21.50;1.00;;;;;;5035362;28;20544;-54
2023/04/29 11:09:17;;;;;;;12.70;8.33;;;21.80;1.00;;;;;;5037428;28;20430;-53
2023/04/29 11:11:53;;;;;;;12.37;8.00;;;21.60;1.00;;;;;;5037251;28;20440;-55
2023/04/29 11:14:36;;;;;;;12.97;8.77;;;21.20;1.00;;;;;;5036883;28;20429;-54
2023/04/29 11:17:22;;;;;;;13.47;9.23;;;19.80;1.00;;;;;;5036912;28;20928;-53
2023/04/29 11:19:51;;;;;;;9.80;7.93;;;18.80;1.00;;;;;;5035803;28;20494;-53
2023/04/29 11:22:26;;;;;;;8.63;7.67;;;18.20;1.00;;;;;;5037047;28;20528;-52
2023/04/29 11:25:00;;;;;;;13.93;8.90;;;18.80;1.00;;;;;;5036951;28;20431;-52
2023/04/29 11:27:34;;;;;;;14.20;8.07;;;19.80;1.00;;;;;;5037276;28;20471;-52
2023/04/29 11:30:02;;;;;;;14.73;8.97;;;20.00;1.00;;;;;;5037209;28;20428;-52
2023/04/29 11:32:30;;;;;;;10.20;8.30;;;20.20;1.00;;;;;;5036852;28;20451;-52
2023/04/29 11:35:22;;;;;;;13.33;8.20;;;20.60;1.00;;;;;;5036943;28;20508;-53
2023/04/29 11:37:48;;;;;;;11.73;7.97;;;21.70;1.00;;;;;;5036207;28;20438;-53
2023/04/29 11:40:14;;;;;;;9.23;7.30;;;22.20;1.00;;;;;;5036663;28;20423;-53
2023/04/29 11:42:45;;;;;;;9.50;7.37;;;21.80;1.00;;;;;;5036948;28;20424;-53
2023/04/29 11:45:11;;;;;;;13.00;8.80;;;20.50;1.00;;;;;;5036797;28;20414;-53
2023/04/29 11:47:41;;;;;;;11.73;8.10;;;20.30;1.00;;;;;;5036159;28;20500;-54
2023/04/29 11:50:09;;;;;;;12.67;8.57;;;20.90;1.00;;;;;;5036817;28;20528;-54
2023/04/29 11:52:36;;;;;;;8.40;6.80;;;21.60;1.00;;;;;;5036378;28;20401;-53
2023/04/29 11:55:03;;;;;;;10.27;7.20;;;21.40;1.00;;;;;;5036445;28;20422;-53
2023/04/29 11:57:28;;;;;;;10.43;7.90;;;20.30;1.00;;;;;;5036731;28;20429;-53
2023/04/29 11:59:56;;;;;;;10.50;8.53;;;19.70;1.00;;;;;;5035893;28;20417;-53
2023/04/29 12:02:22;;;;;;;10.27;8.97;;;20.10;1.00;;;;;;5036024;28;20182;-52
2023/04/29 12:04:48;;;;;;;10.97;9.77;;;19.80;1.00;;;;;;5036038;28;20881;-52
2023/04/29 12:07:18;;;;;;;11.03;8.40;;;19.00;1.00;;;;;;5035945;28;20890;-51
2023/04/29 12:09:45;;;;;;;10.90;8.33;;;18.70;1.00;;;;;;5036232;28;20512;-51
2023/04/29 12:12:11;;;;;;;9.50;6.90;;;19.30;1.00;;;;;;5036076;28;20462;-53
2023/04/29 12:14:37;;;;;;;10.37;7.20;;;20.50;1.00;;;;;;5035736;28;20413;-53
2023/04/29 12:17:04;;;;;;;8.57;7.50;;;21.40;1.00;;;;;;5035529;28;20429;-54
2023/04/29 12:19:30;;;;;;;10.17;6.77;;;21.80;1.00;;;;;;5035347;28;20786;-54
2023/04/29 12:22:02;;;;;;;10.57;6.67;;;21.30;1.00;;;;;;5035497;28;20897;-54
2023/04/29 12:24:28;;;;;;;8.67;6.87;;;21.20;1.00;;;;;;5035937;28;20533;-53
2023/04/29 12:26:54;;;;;;;10.00;5.87;;;21.70;1.00;;;;;;5035390;28;20461;-53
2023/04/29 12:29:24;;;;;;;6.60;5.90;;;22.40;1.00;;;;;;5035836;28;20186;-52
2023/04/29 12:31:50;;;;;;;11.00;5.90;;;21.70;1.00;;;;;;5035629;28;20857;-52
2023/04/29 12:34:15;;;;;;;7.93;5.60;;;21.00;1.00;;;;;;5035619;28;20508;-55
2023/04/29 12:36:42;;;;;;;9.97;5.40;;;20.00;1.00;;;;;;5035961;28;20185;-52
2023/04/29 12:39:09;;;;;;;11.63;5.90;;;20.30;1.00;;;;;;5035581;28;20197;-53
2023/04/29 12:41:41;;;;;;;9.03;6.20;;;20.60;1.00;;;;;;5035660;28;20425;-53
2023/04/29 12:44:09;;;;;;;7.53;6.00;;;21.20;1.00;;;;;;5035721;28;20421;-53